sensor_id;sensor_type;location;lat;lon;timestamp;pressure;altitude;pressure_sealevel;temperature;humidity
78064;BME280;67429;51.596;-3.264;2023-11-19T00:01:43;98623.84;;;8.79;96.62
78064;BME280;67429;51.596;-3.264;2023-11-19T00:04:08;98625.45;;;8.86;95.92
78064;BME280;67429;51.596;-3.264;2023-11-19T00:06:34;98615.66;;;8.97;95.20
78064;BME280;67429;51.596;-3.264;2023-11-19T00:08:59;98616.66;;;8.92;94.73
78064;BME280;67429;51.596;-3.264;2023-11-19T00:11:25;98620.34;;;9.00;94.70
78064;BME280;67429;51.596;-3.264;2023-11-19T00:13:50;98606.83;;;8.65;95.67
78064;BME280;67429;51.596;-3.264;2023-11-19T00:16:16;98615.68;;;8.23;95.92
78064;BME280;67429;51.596;-3.264;2023-11-19T00:18:42;98626.73;;;8.45;97.83
78064;BME280;67429;51.596;-3.264;2023-11-19T00:21:06;98623.03;;;8.23;97.92
78064;BME280;67429;51.596;-3.264;2023-11-19T00:23:36;98612.49;;;7.93;99.39
78064;BME280;67429;51.596;-3.264;2023-11-19T00:25:57;98606.46;;;8.35;99.40
78064;BME280;67429;51.596;-3.264;2023-11-19T00:28:22;98607.60;;;8.60;98.22
78064;BME280;67429;51.596;-3.264;2023-11-19T00:30:48;98618.78;;;8.18;97.83
78064;BME280;67429;51.596;-3.264;2023-11-19T00:33:14;98611.91;;;8.41;98.51
78064;BME280;67429;51.596;-3.264;2023-11-19T00:35:39;98606.33;;;8.83;95.91
78064;BME280;67429;51.596;-3.264;2023-11-19T00:38:04;98608.76;;;7.83;99.87
78064;BME280;67429;51.596;-3.264;2023-11-19T00:40:31;98619.76;;;8.21;100.00
78064;BME280;67429;51.596;-3.264;2023-11-19T00:42:56;98638.06;;;7.65;100.00
78064;BME280;67429;51.596;-3.264;2023-11-19T00:45:21;98598.68;;;8.02;100.00
78064;BME280;67429;51.596;-3.264;2023-11-19T00:47:46;98615.05;;;8.67;98.58
78064;BME280;67429;51.596;-3.264;2023-11-19T00:50:12;98620.33;;;8.58;98.57
78064;BME280;67429;51.596;-3.264;2023-11-19T00:52:38;98608.38;;;8.35;98.08
78064;BME280;67429;51.596;-3.264;2023-11-19T00:55:04;98601.26;;;7.99;98.80
78064;BME280;67429;51.596;-3.264;2023-11-19T00:57:28;98603.63;;;7.80;100.00
78064;BME280;67429;51.596;-3.264;2023-11-19T00:59:53;98602.58;;;8.07;99.92
78064;BME280;67429;51.596;-3.264;2023-11-19T01:02:19;98607.65;;;8.90;96.68
78064;BME280;67429;51.596;-3.264;2023-11-19T01:04:45;98601.17;;;8.27;97.99
78064;BME280;67429;51.596;-3.264;2023-11-19T01:07:10;98616.62;;;8.26;97.79
78064;BME280;67429;51.596;-3.264;2023-11-19T01:09:36;98622.79;;;8.59;96.70
78064;BME280;67429;51.596;-3.264;2023-11-19T01:12:01;98596.62;;;8.03;96.52
78064;BME280;67429;51.596;-3.264;2023-11-19T01:14:26;98582.10;;;8.48;97.05
78064;BME280;67429;51.596;-3.264;2023-11-19T01:16:52;98588.56;;;8.20;97.82
78064;BME280;67429;51.596;-3.264;2023-11-19T01:19:18;98584.11;;;8.18;99.28
78064;BME280;67429;51.596;-3.264;2023-11-19T01:21:43;98597.65;;;7.80;99.49
78064;BME280;67429;51.596;-3.264;2023-11-19T01:24:09;98594.17;;;8.17;98.39
78064;BME280;67429;51.596;-3.264;2023-11-19T01:26:34;98589.60;;;8.20;96.84
78064;BME280;67429;51.596;-3.264;2023-11-19T01:28:59;98575.67;;;8.41;97.75
78064;BME280;67429;51.596;-3.264;2023-11-19T01:31:25;98571.81;;;8.71;94.69
78064;BME280;67429;51.596;-3.264;2023-11-19T01:33:51;98565.99;;;9.27;91.66
78064;BME280;67429;51.596;-3.264;2023-11-19T01:36:17;98573.92;;;9.08;91.41
78064;BME280;67429;51.596;-3.264;2023-11-19T01:38:42;98568.49;;;8.96;91.39
78064;BME280;67429;51.596;-3.264;2023-11-19T01:41:07;98570.71;;;9.12;90.70
78064;BME280;67429;51.596;-3.264;2023-11-19T01:43:34;98558.83;;;9.39;93.69
78064;BME280;67429;51.596;-3.264;2023-11-19T01:45:59;98545.90;;;8.25;94.01
78064;BME280;67429;51.596;-3.264;2023-11-19T01:48:25;98596.30;;;8.05;96.88
78064;BME280;67429;51.596;-3.264;2023-11-19T01:50:51;98538.70;;;8.23;97.37
78064;BME280;67429;51.596;-3.264;2023-11-19T01:53:16;98559.08;;;7.82;99.42
78064;BME280;67429;51.596;-3.264;2023-11-19T01:55:41;98571.05;;;8.23;99.01
78064;BME280;67429;51.596;-3.264;2023-11-19T01:58:07;98600.21;;;7.94;100.00
78064;BME280;67429;51.596;-3.264;2023-11-19T02:00:31;98596.09;;;7.12;100.00
78064;BME280;67429;51.596;-3.264;2023-11-19T02:02:57;98573.45;;;7.50;100.00
78064;BME280;67429;51.596;-3.264;2023-11-19T02:05:22;98581.38;;;7.96;99.73
78064;BME280;67429;51.596;-3.264;2023-11-19T02:07:48;98562.57;;;7.71;99.26
78064;BME280;67429;51.596;-3.264;2023-11-19T02:10:12;98573.87;;;7.42;100.00
78064;BME280;67429;51.596;-3.264;2023-11-19T02:12:38;98567.85;;;7.84;100.00
78064;BME280;67429;51.596;-3.264;2023-11-19T02:15:04;98605.98;;;7.96;100.00
78064;BME280;67429;51.596;-3.264;2023-11-19T02:17:30;98601.55;;;6.82;100.00
78064;BME280;67429;51.596;-3.264;2023-11-19T02:19:53;98596.47;;;7.00;100.00
78064;BME280;67429;51.596;-3.264;2023-11-19T02:22:19;98597.92;;;6.83;100.00
78064;BME280;67429;51.596;-3.264;2023-11-19T02:24:45;98578.02;;;7.04;99.41
78064;BME280;67429;51.596;-3.264;2023-11-19T02:27:15;98583.83;;;7.11;99.20
78064;BME280;67429;51.596;-3.264;2023-11-19T02:29:36;98577.01;;;6.55;100.00
78064;BME280;67429;51.596;-3.264;2023-11-19T02:32:02;98595.55;;;7.10;98.87
78064;BME280;67429;51.596;-3.264;2023-11-19T02:34:27;98590.46;;;7.01;97.55
78064;BME280;67429;51.596;-3.264;2023-11-19T02:36:53;98589.34;;;6.74;98.94
78064;BME280;67429;51.596;-3.264;2023-11-19T02:39:18;98590.28;;;7.51;98.70
78064;BME280;67429;51.596;-3.264;2023-11-19T02:41:44;98581.71;;;7.74;95.33
78064;BME280;67429;51.596;-3.264;2023-11-19T02:44:10;98587.22;;;9.09;89.99
78064;BME280;67429;51.596;-3.264;2023-11-19T02:46:35;98579.21;;;8.27;91.29
78064;BME280;67429;51.596;-3.264;2023-11-19T02:49:01;98555.71;;;7.94;92.59
78064;BME280;67429;51.596;-3.264;2023-11-19T02:51:26;98554.46;;;8.26;91.62
78064;BME280;67429;51.596;-3.264;2023-11-19T02:53:52;98555.17;;;7.44;95.48
78064;BME280;67429;51.596;-3.264;2023-11-19T02:56:17;98555.22;;;7.46;97.20
78064;BME280;67429;51.596;-3.264;2023-11-19T02:58:43;98557.71;;;7.63;97.68
78064;BME280;67429;51.596;-3.264;2023-11-19T03:01:08;98553.94;;;7.36;99.54
78064;BME280;67429;51.596;-3.264;2023-11-19T03:03:33;98545.16;;;7.66;96.90
78064;BME280;67429;51.596;-3.264;2023-11-19T03:05:59;98541.60;;;8.07;96.97
78064;BME280;67429;51.596;-3.264;2023-11-19T03:08:24;98529.14;;;7.99;96.87
78064;BME280;67429;51.596;-3.264;2023-11-19T03:10:49;98531.48;;;8.41;95.54
78064;BME280;67429;51.596;-3.264;2023-11-19T03:13:15;98526.73;;;7.75;97.35
78064;BME280;67429;51.596;-3.264;2023-11-19T03:15:41;98522.79;;;9.12;92.24
78064;BME280;67429;51.596;-3.264;2023-11-19T03:18:06;98517.14;;;8.80;89.99
78064;BME280;67429;51.596;-3.264;2023-11-19T03:20:31;98519.19;;;8.66;90.36
78064;BME280;67429;51.596;-3.264;2023-11-19T03:22:57;98530.52;;;8.06;93.95
78064;BME280;67429;51.596;-3.264;2023-11-19T03:25:21;98533.15;;;7.81;96.89
78064;BME280;67429;51.596;-3.264;2023-11-19T03:27:47;98540.63;;;7.36;98.59
78064;BME280;67429;51.596;-3.264;2023-11-19T03:30:12;98547.14;;;7.24;100.00
78064;BME280;67429;51.596;-3.264;2023-11-19T03:32:37;98529.90;;;7.27;100.00
78064;BME280;67429;51.596;-3.264;2023-11-19T03:35:03;98532.57;;;7.50;100.00
78064;BME280;67429;51.596;-3.264;2023-11-19T03:37:28;98539.12;;;7.99;100.00
78064;BME280;67429;51.596;-3.264;2023-11-19T03:39:54;98531.50;;;7.94;96.73
78064;BME280;67429;51.596;-3.264;2023-11-19T03:42:19;98538.65;;;8.05;96.86
78064;BME280;67429;51.596;-3.264;2023-11-19T03:44:45;98539.31;;;7.54;99.67
78064;BME280;67429;51.596;-3.264;2023-11-19T03:47:09;98529.66;;;7.25;100.00
78064;BME280;67429;51.596;-3.264;2023-11-19T03:49:35;98541.68;;;7.17;100.00
78064;BME280;67429;51.596;-3.264;2023-11-19T03:52:00;98541.62;;;7.40;100.00
78064;BME280;67429;51.596;-3.264;2023-11-19T03:54:25;98540.69;;;7.39;100.00
78064;BME280;67429;51.596;-3.264;2023-11-19T03:56:51;98532.20;;;7.74;100.00
78064;BME280;67429;51.596;-3.264;2023-11-19T03:59:17;98536.49;;;7.41;100.00
78064;BME280;67429;51.596;-3.264;2023-11-19T04:01:42;98525.47;;;7.70;100.00
78064;BME280;67429;51.596;-3.264;2023-11-19T04:04:07;98521.63;;;7.70;100.00
78064;BME280;67429;51.596;-3.264;2023-11-19T04:06:33;98523.76;;;7.26;100.00
78064;BME280;67429;51.596;-3.264;2023-11-19T04:08:58;98524.85;;;7.39;100.00
78064;BME280;67429;51.596;-3.264;2023-11-19T04:11:23;98526.95;;;7.68;99.84
78064;BME280;67429;51.596;-3.264;2023-11-19T04:13:49;98525.31;;;8.08;97.94
78064;BME280;67429;51.596;-3.264;2023-11-19T04:16:14;98519.26;;;7.69;97.95
78064;BME280;67429;51.596;-3.264;2023-11-19T04:18:39;98519.83;;;7.35;99.80
78064;BME280;67429;51.596;-3.264;2023-11-19T04:21:06;98524.02;;;7.52;99.46
78064;BME280;67429;51.596;-3.264;2023-11-19T04:23:30;98509.90;;;7.67;97.37
78064;BME280;67429;51.596;-3.264;2023-11-19T04:25:56;98506.85;;;7.49;97.34
78064;BME280;67429;51.596;-3.264;2023-11-19T04:28:21;98505.73;;;8.19;97.16
78064;BME280;67429;51.596;-3.264;2023-11-19T04:30:47;98505.17;;;8.13;96.54
78064;BME280;67429;51.596;-3.264;2023-11-19T04:33:12;98500.10;;;8.79;93.31
78064;BME280;67429;51.596;-3.264;2023-11-19T04:35:37;98497.30;;;8.97;90.74
78064;BME280;67429;51.596;-3.264;2023-11-19T04:38:02;98497.48;;;8.03;93.17
78064;BME280;67429;51.596;-3.264;2023-11-19T04:40:28;98497.62;;;8.03;94.29
78064;BME280;67429;51.596;-3.264;2023-11-19T04:42:53;98494.30;;;8.11;94.49
78064;BME280;67429;51.596;-3.264;2023-11-19T04:45:18;98496.65;;;8.36;95.37
78064;BME280;67429;51.596;-3.264;2023-11-19T04:47:43;98489.83;;;7.93;96.24
78064;BME280;67429;51.596;-3.264;2023-11-19T04:50:09;98482.73;;;8.11;95.79
78064;BME280;67429;51.596;-3.264;2023-11-19T04:52:34;98488.90;;;7.70;98.39
78064;BME280;67429;51.596;-3.264;2023-11-19T04:54:59;98473.70;;;7.44;98.08
78064;BME280;67429;51.596;-3.264;2023-11-19T04:57:25;98474.96;;;7.05;98.48
78064;BME280;67429;51.596;-3.264;2023-11-19T04:59:50;98474.55;;;7.04;100.00
78064;BME280;67429;51.596;-3.264;2023-11-19T05:02:15;98479.57;;;7.37;100.00
78064;BME280;67429;51.596;-3.264;2023-11-19T05:04:42;98501.66;;;6.88;100.00
78064;BME280;67429;51.596;-3.264;2023-11-19T05:07:05;98482.52;;;7.37;100.00
78064;BME280;67429;51.596;-3.264;2023-11-19T05:09:31;98454.36;;;7.41;100.00
78064;BME280;67429;51.596;-3.264;2023-11-19T05:11:56;98471.84;;;7.29;100.00
78064;BME280;67429;51.596;-3.264;2023-11-19T05:14:22;98478.40;;;7.52;100.00
78064;BME280;67429;51.596;-3.264;2023-11-19T05:16:47;98474.04;;;7.64;100.00
78064;BME280;67429;51.596;-3.264;2023-11-19T05:19:12;98484.85;;;7.32;100.00
78064;BME280;67429;51.596;-3.264;2023-11-19T05:21:37;98495.46;;;7.44;100.00
78064;BME280;67429;51.596;-3.264;2023-11-19T05:24:03;98473.58;;;7.10;100.00
78064;BME280;67429;51.596;-3.264;2023-11-19T05:26:28;98509.36;;;7.39;100.00
78064;BME280;67429;51.596;-3.264;2023-11-19T05:28:53;98495.55;;;7.02;100.00
78064;BME280;67429;51.596;-3.264;2023-11-19T05:31:19;98498.14;;;7.04;100.00
78064;BME280;67429;51.596;-3.264;2023-11-19T05:33:44;98491.84;;;7.49;100.00
78064;BME280;67429;51.596;-3.264;2023-11-19T05:36:11;98493.62;;;7.18;99.97
78064;BME280;67429;51.596;-3.264;2023-11-19T05:38:36;98486.13;;;7.06;99.84
78064;BME280;67429;51.596;-3.264;2023-11-19T05:41:01;98504.41;;;6.84;99.88
78064;BME280;67429;51.596;-3.264;2023-11-19T05:43:27;98488.63;;;6.67;98.80
78064;BME280;67429;51.596;-3.264;2023-11-19T05:45:52;98470.15;;;6.69;99.77
78064;BME280;67429;51.596;-3.264;2023-11-19T05:48:17;98466.38;;;6.58;100.00
78064;BME280;67429;51.596;-3.264;2023-11-19T05:50:42;98475.32;;;6.98;100.00
78064;BME280;67429;51.596;-3.264;2023-11-19T05:53:07;98453.27;;;6.65;100.00
78064;BME280;67429;51.596;-3.264;2023-11-19T05:55:34;98455.22;;;7.30;99.35
78064;BME280;67429;51.596;-3.264;2023-11-19T05:57:58;98459.27;;;6.99;98.44
78064;BME280;67429;51.596;-3.264;2023-11-19T06:00:23;98470.62;;;7.25;98.76
78064;BME280;67429;51.596;-3.264;2023-11-19T06:02:49;98474.15;;;7.54;98.87
78064;BME280;67429;51.596;-3.264;2023-11-19T06:05:14;98470.22;;;7.35;97.34
78064;BME280;67429;51.596;-3.264;2023-11-19T06:07:39;98470.73;;;7.52;96.25
78064;BME280;67429;51.596;-3.264;2023-11-19T06:10:05;98475.90;;;7.72;95.47
78064;BME280;67429;51.596;-3.264;2023-11-19T06:12:30;98473.17;;;8.30;93.85
78064;BME280;67429;51.596;-3.264;2023-11-19T06:14:55;98474.06;;;7.73;94.99
78064;BME280;67429;51.596;-3.264;2023-11-19T06:17:21;98481.95;;;7.53;95.29
78064;BME280;67429;51.596;-3.264;2023-11-19T06:19:46;98468.22;;;7.58;94.34
78064;BME280;67429;51.596;-3.264;2023-11-19T06:22:11;98471.06;;;7.58;94.03
78064;BME280;67429;51.596;-3.264;2023-11-19T06:24:37;98469.87;;;7.31;95.10
78064;BME280;67429;51.596;-3.264;2023-11-19T06:27:02;98441.24;;;7.42;95.66
78064;BME280;67429;51.596;-3.264;2023-11-19T06:29:27;98473.54;;;7.52;96.48
78064;BME280;67429;51.596;-3.264;2023-11-19T06:31:52;98467.09;;;7.50;96.89
78064;BME280;67429;51.596;-3.264;2023-11-19T06:34:18;98464.66;;;7.01;97.49
78064;BME280;67429;51.596;-3.264;2023-11-19T06:36:43;98470.23;;;7.05;99.43
78064;BME280;67429;51.596;-3.264;2023-11-19T06:39:09;98465.70;;;7.08;100.00
78064;BME280;67429;51.596;-3.264;2023-11-19T06:41:34;98453.14;;;7.25;100.00
78064;BME280;67429;51.596;-3.264;2023-11-19T06:44:00;98447.48;;;7.19;99.60
78064;BME280;67429;51.596;-3.264;2023-11-19T06:46:25;98451.89;;;7.71;98.40
78064;BME280;67429;51.596;-3.264;2023-11-19T06:48:51;98447.00;;;7.80;97.54
78064;BME280;67429;51.596;-3.264;2023-11-19T06:51:16;98445.15;;;7.91;96.45
78064;BME280;67429;51.596;-3.264;2023-11-19T06:53:42;98457.64;;;7.86;96.26
78064;BME280;67429;51.596;-3.264;2023-11-19T06:56:18;98459.42;;;7.41;96.79
78064;BME280;67429;51.596;-3.264;2023-11-19T06:58:36;98459.08;;;7.99;95.78
78064;BME280;67429;51.596;-3.264;2023-11-19T07:00:58;98460.24;;;7.38;96.32
78064;BME280;67429;51.596;-3.264;2023-11-19T07:03:23;98437.14;;;6.94;96.94
78064;BME280;67429;51.596;-3.264;2023-11-19T07:05:49;98466.29;;;7.45;96.64
78064;BME280;67429;51.596;-3.264;2023-11-19T07:08:14;98435.74;;;7.13;95.14
78064;BME280;67429;51.596;-3.264;2023-11-19T07:10:40;98447.18;;;6.88;97.27
78064;BME280;67429;51.596;-3.264;2023-11-19T07:13:06;98453.72;;;7.18;98.84
78064;BME280;67429;51.596;-3.264;2023-11-19T07:15:30;98452.56;;;7.02;100.00
78064;BME280;67429;51.596;-3.264;2023-11-19T07:17:56;98441.54;;;7.90;97.13
78064;BME280;67429;51.596;-3.264;2023-11-19T07:20:21;98445.82;;;7.65;96.93
78064;BME280;67429;51.596;-3.264;2023-11-19T07:22:47;98455.36;;;7.53;96.68
78064;BME280;67429;51.596;-3.264;2023-11-19T07:25:13;98455.29;;;7.64;95.69
78064;BME280;67429;51.596;-3.264;2023-11-19T07:27:37;98452.15;;;7.63;95.39
78064;BME280;67429;51.596;-3.264;2023-11-19T07:30:04;98448.98;;;7.47;94.86
78064;BME280;67429;51.596;-3.264;2023-11-19T07:32:28;98447.80;;;7.34;95.81
78064;BME280;67429;51.596;-3.264;2023-11-19T07:34:54;98457.55;;;7.21;97.23
78064;BME280;67429;51.596;-3.264;2023-11-19T07:37:20;98442.00;;;7.15;99.65
78064;BME280;67429;51.596;-3.264;2023-11-19T07:39:46;98449.71;;;7.14;100.00
78064;BME280;67429;51.596;-3.264;2023-11-19T07:42:11;98479.78;;;7.30;98.61
78064;BME280;67429;51.596;-3.264;2023-11-19T07:44:37;98451.53;;;7.19;98.53
78064;BME280;67429;51.596;-3.264;2023-11-19T07:47:02;98452.01;;;7.67;98.52
78064;BME280;67429;51.596;-3.264;2023-11-19T07:49:27;98451.07;;;8.23;95.27
78064;BME280;67429;51.596;-3.264;2023-11-19T07:51:53;98434.30;;;8.21;95.17
78064;BME280;67429;51.596;-3.264;2023-11-19T07:54:18;98441.66;;;7.27;98.00
78064;BME280;67429;51.596;-3.264;2023-11-19T07:56:43;98434.62;;;7.26;99.63
78064;BME280;67429;51.596;-3.264;2023-11-19T07:59:09;98431.03;;;7.66;98.81
78064;BME280;67429;51.596;-3.264;2023-11-19T08:01:35;98453.95;;;7.11;100.00
78064;BME280;67429;51.596;-3.264;2023-11-19T08:04:00;98442.22;;;6.69;100.00
78064;BME280;67429;51.596;-3.264;2023-11-19T08:06:26;98440.05;;;6.64;100.00
78064;BME280;67429;51.596;-3.264;2023-11-19T08:08:51;98434.88;;;6.90;100.00
78064;BME280;67429;51.596;-3.264;2023-11-19T08:11:17;98429.59;;;6.87;100.00
78064;BME280;67429;51.596;-3.264;2023-11-19T08:13:42;98425.73;;;7.26;100.00
78064;BME280;67429;51.596;-3.264;2023-11-19T08:16:08;98425.43;;;7.18;100.00
78064;BME280;67429;51.596;-3.264;2023-11-19T08:18:33;98424.74;;;6.97;100.00
78064;BME280;67429;51.596;-3.264;2023-11-19T08:20:58;98415.27;;;6.96;100.00
78064;BME280;67429;51.596;-3.264;2023-11-19T08:23:23;98416.88;;;7.45;100.00
78064;BME280;67429;51.596;-3.264;2023-11-19T08:25:49;98417.88;;;7.14;100.00
78064;BME280;67429;51.596;-3.264;2023-11-19T08:28:15;98418.92;;;7.40;100.00
78064;BME280;67429;51.596;-3.264;2023-11-19T08:30:40;98420.13;;;7.41;100.00
78064;BME280;67429;51.596;-3.264;2023-11-19T08:33:05;98413.07;;;7.13;100.00
78064;BME280;67429;51.596;-3.264;2023-11-19T08:35:31;98409.19;;;7.17;100.00
78064;BME280;67429;51.596;-3.264;2023-11-19T08:37:56;98413.78;;;7.63;100.00
78064;BME280;67429;51.596;-3.264;2023-11-19T08:40:21;98419.62;;;7.30;100.00
78064;BME280;67429;51.596;-3.264;2023-11-19T08:42:47;98447.70;;;7.79;100.00
78064;BME280;67429;51.596;-3.264;2023-11-19T08:45:13;98444.67;;;7.32;100.00
78064;BME280;67429;51.596;-3.264;2023-11-19T08:47:38;98426.80;;;7.17;100.00
78064;BME280;67429;51.596;-3.264;2023-11-19T08:50:04;98430.79;;;7.33;100.00
78064;BME280;67429;51.596;-3.264;2023-11-19T08:52:28;98428.51;;;7.25;100.00
78064;BME280;67429;51.596;-3.264;2023-11-19T08:54:53;98447.60;;;6.81;100.00
78064;BME280;67429;51.596;-3.264;2023-11-19T08:57:19;98440.86;;;6.67;100.00
78064;BME280;67429;51.596;-3.264;2023-11-19T08:59:45;98431.44;;;6.70;100.00
78064;BME280;67429;51.596;-3.264;2023-11-19T09:02:10;98417.70;;;6.74;100.00
78064;BME280;67429;51.596;-3.264;2023-11-19T09:04:36;98410.50;;;6.91;100.00
78064;BME280;67429;51.596;-3.264;2023-11-19T09:07:02;98413.00;;;6.99;100.00
78064;BME280;67429;51.596;-3.264;2023-11-19T09:09:27;98421.98;;;7.06;100.00
78064;BME280;67429;51.596;-3.264;2023-11-19T09:11:53;98417.23;;;7.20;100.00
78064;BME280;67429;51.596;-3.264;2023-11-19T09:14:18;98422.27;;;7.15;100.00
78064;BME280;67429;51.596;-3.264;2023-11-19T09:16:44;98449.22;;;7.19;100.00
78064;BME280;67429;51.596;-3.264;2023-11-19T09:19:09;98416.51;;;6.86;100.00
78064;BME280;67429;51.596;-3.264;2023-11-19T09:21:34;98409.64;;;6.92;100.00
78064;BME280;67429;51.596;-3.264;2023-11-19T09:24:00;98427.25;;;7.35;100.00
78064;BME280;67429;51.596;-3.264;2023-11-19T09:26:26;98419.55;;;7.28;100.00
78064;BME280;67429;51.596;-3.264;2023-11-19T09:28:51;98409.83;;;7.09;100.00
78064;BME280;67429;51.596;-3.264;2023-11-19T09:31:17;98414.42;;;7.90;100.00
78064;BME280;67429;51.596;-3.264;2023-11-19T09:33:43;98403.83;;;7.32;100.00
78064;BME280;67429;51.596;-3.264;2023-11-19T09:36:09;98411.86;;;7.48;100.00
78064;BME280;67429;51.596;-3.264;2023-11-19T09:38:34;98399.53;;;7.42;100.00
78064;BME280;67429;51.596;-3.264;2023-11-19T09:40:59;98406.02;;;7.16;100.00
78064;BME280;67429;51.596;-3.264;2023-11-19T09:43:26;98415.94;;;7.44;100.00
78064;BME280;67429;51.596;-3.264;2023-11-19T09:45:50;98407.10;;;7.83;100.00
78064;BME280;67429;51.596;-3.264;2023-11-19T09:48:17;98402.30;;;7.92;100.00
78064;BME280;67429;51.596;-3.264;2023-11-19T09:50:41;98411.91;;;7.67;100.00
78064;BME280;67429;51.596;-3.264;2023-11-19T09:53:07;98419.20;;;7.76;100.00
78064;BME280;67429;51.596;-3.264;2023-11-19T09:55:33;98411.04;;;7.84;100.00
78064;BME280;67429;51.596;-3.264;2023-11-19T09:57:58;98395.63;;;7.57;100.00
78064;BME280;67429;51.596;-3.264;2023-11-19T10:00:24;98406.10;;;7.50;100.00
78064;BME280;67429;51.596;-3.264;2023-11-19T10:02:49;98398.27;;;7.96;100.00
78064;BME280;67429;51.596;-3.264;2023-11-19T10:05:15;98424.53;;;7.97;100.00
78064;BME280;67429;51.596;-3.264;2023-11-19T10:07:40;98410.14;;;7.73;100.00
78064;BME280;67429;51.596;-3.264;2023-11-19T10:10:06;98398.54;;;7.61;100.00
78064;BME280;67429;51.596;-3.264;2023-11-19T10:12:32;98403.79;;;7.66;100.00
78064;BME280;67429;51.596;-3.264;2023-11-19T10:14:58;98404.21;;;7.41;100.00
78064;BME280;67429;51.596;-3.264;2023-11-19T10:17:27;98398.83;;;7.82;100.00
78064;BME280;67429;51.596;-3.264;2023-11-19T10:19:49;98407.48;;;7.58;100.00
78064;BME280;67429;51.596;-3.264;2023-11-19T10:22:14;98393.05;;;7.02;100.00
78064;BME280;67429;51.596;-3.264;2023-11-19T10:24:40;98400.35;;;7.50;100.00
78064;BME280;67429;51.596;-3.264;2023-11-19T10:27:07;98404.84;;;7.63;100.00
78064;BME280;67429;51.596;-3.264;2023-11-19T10:29:31;98421.21;;;8.16;100.00
78064;BME280;67429;51.596;-3.264;2023-11-19T10:31:57;98417.17;;;7.52;100.00
78064;BME280;67429;51.596;-3.264;2023-11-19T10:34:25;98426.67;;;7.95;100.00
78064;BME280;67429;51.596;-3.264;2023-11-19T10:36:47;98431.34;;;7.73;100.00
78064;BME280;67429;51.596;-3.264;2023-11-19T10:39:13;98437.82;;;7.68;100.00
78064;BME280;67429;51.596;-3.264;2023-11-19T10:41:38;98426.71;;;7.49;100.00
78064;BME280;67429;51.596;-3.264;2023-11-19T10:44:04;98439.32;;;8.30;100.00
78064;BME280;67429;51.596;-3.264;2023-11-19T10:46:39;98434.26;;;7.95;100.00
78064;BME280;67429;51.596;-3.264;2023-11-19T10:48:55;98424.69;;;7.47;100.00
78064;BME280;67429;51.596;-3.264;2023-11-19T10:51:20;98420.62;;;7.76;100.00
78064;BME280;67429;51.596;-3.264;2023-11-19T10:53:47;98437.29;;;7.77;100.00
78064;BME280;67429;51.596;-3.264;2023-11-19T10:56:13;98430.55;;;7.64;100.00
78064;BME280;67429;51.596;-3.264;2023-11-19T10:58:40;98440.83;;;7.72;100.00
78064;BME280;67429;51.596;-3.264;2023-11-19T11:01:07;98419.32;;;7.61;100.00
78064;BME280;67429;51.596;-3.264;2023-11-19T11:03:35;98441.33;;;7.91;100.00
78064;BME280;67429;51.596;-3.264;2023-11-19T11:05:54;98429.90;;;7.66;100.00
78064;BME280;67429;51.596;-3.264;2023-11-19T11:08:21;98425.58;;;7.76;100.00
78064;BME280;67429;51.596;-3.264;2023-11-19T11:10:50;98412.49;;;7.86;100.00
78064;BME280;67429;51.596;-3.264;2023-11-19T11:13:11;98412.88;;;7.49;100.00
78064;BME280;67429;51.596;-3.264;2023-11-19T11:15:37;98413.77;;;7.80;100.00
78064;BME280;67429;51.596;-3.264;2023-11-19T11:18:02;98417.63;;;7.80;100.00
78064;BME280;67429;51.596;-3.264;2023-11-19T11:20:30;98405.42;;;8.03;100.00
78064;BME280;67429;51.596;-3.264;2023-11-19T11:23:03;98404.85;;;7.49;100.00
78064;BME280;67429;51.596;-3.264;2023-11-19T11:25:25;98418.86;;;7.88;100.00
78064;BME280;67429;51.596;-3.264;2023-11-19T11:27:57;98419.35;;;7.56;100.00
78064;BME280;67429;51.596;-3.264;2023-11-19T11:30:20;98407.50;;;7.47;100.00
78064;BME280;67429;51.596;-3.264;2023-11-19T11:32:40;98419.35;;;8.01;100.00
78064;BME280;67429;51.596;-3.264;2023-11-19T11:35:14;98431.35;;;7.81;100.00
78064;BME280;67429;51.596;-3.264;2023-11-19T11:37:33;98420.41;;;7.62;100.00
78064;BME280;67429;51.596;-3.264;2023-11-19T11:39:53;98435.14;;;7.35;100.00
78064;BME280;67429;51.596;-3.264;2023-11-19T11:42:32;98426.29;;;7.94;100.00
78064;BME280;67429;51.596;-3.264;2023-11-19T11:44:58;98433.14;;;7.34;100.00
78064;BME280;67429;51.596;-3.264;2023-11-19T11:47:09;98432.28;;;7.93;100.00
78064;BME280;67429;51.596;-3.264;2023-11-19T11:49:35;98427.69;;;7.92;100.00
78064;BME280;67429;51.596;-3.264;2023-11-19T11:52:02;98443.17;;;7.83;100.00
78064;BME280;67429;51.596;-3.264;2023-11-19T11:54:27;98434.26;;;7.69;100.00
78064;BME280;67429;51.596;-3.264;2023-11-19T11:57:01;98454.93;;;7.79;100.00
78064;BME280;67429;51.596;-3.264;2023-11-19T11:59:18;98441.68;;;7.97;100.00
78064;BME280;67429;51.596;-3.264;2023-11-19T12:04:07;98427.55;;;7.54;100.00
78064;BME280;67429;51.596;-3.264;2023-11-19T12:06:33;98434.91;;;7.84;100.00
78064;BME280;67429;51.596;-3.264;2023-11-19T12:09:00;98421.09;;;7.96;100.00
78064;BME280;67429;51.596;-3.264;2023-11-19T12:11:24;98406.12;;;7.68;100.00
78064;BME280;67429;51.596;-3.264;2023-11-19T12:13:55;98446.39;;;7.69;100.00
78064;BME280;67429;51.596;-3.264;2023-11-19T12:16:14;98416.29;;;7.86;100.00
78064;BME280;67429;51.596;-3.264;2023-11-19T12:18:40;98420.30;;;7.84;100.00
78064;BME280;67429;51.596;-3.264;2023-11-19T12:21:05;98438.21;;;7.72;100.00
78064;BME280;67429;51.596;-3.264;2023-11-19T12:23:31;98423.76;;;7.48;100.00
78064;BME280;67429;51.596;-3.264;2023-11-19T12:25:56;98401.89;;;7.27;100.00
78064;BME280;67429;51.596;-3.264;2023-11-19T12:28:21;98424.02;;;7.71;100.00
78064;BME280;67429;51.596;-3.264;2023-11-19T12:30:47;98422.57;;;7.89;100.00
78064;BME280;67429;51.596;-3.264;2023-11-19T12:33:13;98449.66;;;7.76;100.00
78064;BME280;67429;51.596;-3.264;2023-11-19T12:35:39;98427.86;;;7.56;100.00
78064;BME280;67429;51.596;-3.264;2023-11-19T12:38:03;98430.74;;;7.90;100.00
78064;BME280;67429;51.596;-3.264;2023-11-19T12:40:28;98429.18;;;8.37;100.00
78064;BME280;67429;51.596;-3.264;2023-11-19T12:42:54;98445.06;;;8.70;100.00
78064;BME280;67429;51.596;-3.264;2023-11-19T12:45:19;98431.41;;;8.41;100.00
78064;BME280;67429;51.596;-3.264;2023-11-19T12:47:45;98420.06;;;8.21;100.00